Grand Marais, MN

4:37 PM CDT on July 29, 2015 (GMT -0500)
SundewTech | | Change Station
CLOSE
Current Station
Personal Weather Station
Location: Grand Marais, MN
Elevation: 676 ft
Nearby Weather Stations
Active Advisory: Wind Advisory Active Notice: Public Information Statement

Elev 676 ft 47.75 °N, 90.34 °W | Updated 1 second ago

Overcast
Overcast
63.1 °F
Feels Like 63.1 °F
N
0.0
Wind Variable Wind from WSW
Gusts 6.9 mph

Today
High -- | Low -- °F
--% Chance of Precip.
Yesterday
High -- | Low -- °F
Precip. -- in
5:34 AM 8:40 PM
Waxing Gibbous, 97% visible
Pressure 29.74 in
Visibility 10.0 miles
Clouds Mostly Cloudy 4900 ft
Overcast 6000 ft
Dew Point 51 °F
Humidity 64%
Rainfall 0.00 in
Snow Depth Not available.
UV 2 out of 12
Pollen 5.60 out of 12
Air Quality Not available.
Flu Activity Not available.
METAR KBFW 292115Z AUTO 23007KT 190V280 10SM BKN049 OVC060 22/14 A2974 RMK AO2

More Conditions Fewer Conditions

Pressure 29.74 in
Visibility 10.0 miles
Clouds Mostly Cloudy 4900 ft
Overcast 6000 ft
Dew Point 51 °F
Humidity 64%
Rainfall 0.00 in
Snow Depth Not available.
UV 2 out of 12
Pollen 5.60 out of 12
Air Quality Not available.
Flu Activity Not available.
METAR KBFW 292115Z AUTO 23007KT 190V280 10SM BKN049 OVC060 22/14 A2974 RMK AO2

More Conditions Fewer Conditions

10-Day Weather Forecast

×

Almanac

Astronomy

Jul. 29, 2015 Rise Set
Actual Time
Civil Twilight
Nautical Twilight
Astronomical Twilight
Moon
Length of Visible Light
Length of Day
Tomorrow will be .
, % of the Moon is Illuminated

Today's Extremes

State Highs State Lows

Community

WunderPhotos

Upload Photos

1,842,160 photos uploaded!

WunderBlogs® & News

Nearby

Air Quality

  Air Quality AQ Index Pollutant
Not available.

Snow Depth

Station Depth Elevation

Earthquake Activity

City Distance Mag. Time & Date
Minimum magnitude displayed is 2.5.

Coastal Water Temperatures

Place Temperature

Stations

Nearby Weather Stations

Station Location Temp. Windchill Dew Point Humidity Wind Precip. Elev Updated Type
                   
Wind Advisory
Statement as of 2:47 PM CDT on July 29, 2015

... Wind Advisory remains in effect until 7 PM CDT this evening...

* location... northeast Minnesota and Douglas County Wisconsin.

* Winds... west 15 to 25 mph with gusts up to 40 mph.

* Timing... through early this evening. The winds will peak late
this afternoon. The winds will gradually decrease this evening.

* Impacts... unsecured outdoor objects could be blown around.
Branches and small trees may blow down.

Precautionary/preparedness actions...

A Wind Advisory means that winds of 35 mph are expected. Winds
this strong can make driving difficult... especially for high
profile vehicles. Use extra caution.

Secure loose outdoor objects such as lawn furniture and garbage
cans. Take down hanging planters and other hanging objects such
as wind Chimes and bird feeders.

Be careful in wooded areas as branches and small trees may be
blown down.



G2